Time;durP1;ratioP1;P1;durP2;ratioP2;P2;SDS_P1;SDS_P2;PMS_P1;PMS_P2;Temp;Humidity;BMP_temperature;BMP_pressure;BME280_temperature;BME280_humidity;BME280_pressure;Samples;Min_cycle;Max_cycle;Signal;HPM_P1;HPM_P2
2023/03/02 00:01:33;;;;;;;7.93;2.40;;;;;;;;;;5063748;28;20040;-77
2023/03/02 00:04:00;;;;;;;7.68;2.55;;;;;;;;;;5072072;28;20025;-77
2023/03/02 00:06:29;;;;;;;15.70;3.03;;;;;;;;;;5060312;28;20029;-77
2023/03/02 00:08:55;;;;;;;7.43;2.47;;;;;;;;;;5070284;28;20059;-77
2023/03/02 00:11:21;;;;;;;9.05;2.67;;;;;;;;;;5059245;28;20036;-77
2023/03/02 00:13:47;;;;;;;10.05;2.83;;;;;;;;;;5065277;28;20025;-77
2023/03/02 00:16:14;;;;;;;4.97;2.78;;;;;;;;;;5048514;28;20119;-77
2023/03/02 00:18:40;;;;;;;11.02;2.72;;;;;;;;;;5058562;28;20032;-77
2023/03/02 00:21:09;;;;;;;7.43;2.88;;;;;;;;;;5070194;28;20035;-77
2023/03/02 00:23:36;;;;;;;8.82;3.50;;;;;;;;;;5060677;28;20107;-77
2023/03/02 00:26:03;;;;;;;13.30;3.30;;;;;;;;;;5045492;28;20450;-77
2023/03/02 00:28:29;;;;;;;11.65;3.88;;;;;;;;;;5068539;28;20404;-77
2023/03/02 00:30:55;;;;;;;7.80;3.65;;;;;;;;;;5039005;28;20060;-77
2023/03/02 00:33:22;;;;;;;12.13;4.05;;;;;;;;;;5051402;28;20037;-77
2023/03/02 00:35:48;;;;;;;8.18;3.90;;;;;;;;;;5043547;28;20028;-77
2023/03/02 00:38:15;;;;;;;8.88;3.47;;;;;;;;;;5085131;28;20048;-77
2023/03/02 00:40:45;;;;;;;11.85;3.67;;;;;;;;;;5060646;28;20028;-77
2023/03/02 00:43:11;;;;;;;8.75;4.38;;;;;;;;;;5090061;28;20032;-77
2023/03/02 00:45:38;;;;;;;12.70;3.70;;;;;;;;;;5080565;28;20495;-77
2023/03/02 00:48:04;;;;;;;8.45;3.05;;;;;;;;;;5065288;28;20033;-77
2023/03/02 00:50:30;;;;;;;14.27;3.42;;;;;;;;;;5087782;28;20024;-77
2023/03/02 00:52:56;;;;;;;10.05;3.08;;;;;;;;;;5076103;28;20087;-77
2023/03/02 00:55:22;;;;;;;10.85;3.20;;;;;;;;;;5093535;28;20482;-77
2023/03/02 00:57:54;;;;;;;15.15;5.30;;;;;;;;;;5067507;28;20036;-77
2023/03/02 01:00:28;;;;;;;16.23;3.72;;;;;;;;;;5052342;28;20039;-77
2023/03/02 01:02:57;;;;;;;10.73;3.92;;;;;;;;;;5042193;28;20032;-77
2023/03/02 01:05:23;;;;;;;7.10;3.67;;;;;;;;;;5071185;28;20052;-77
2023/03/02 01:07:49;;;;;;;11.65;3.80;;;;;;;;;;5063076;28;20064;-77
2023/03/02 01:10:16;;;;;;;7.22;3.53;;;;;;;;;;5063644;28;20541;-77
2023/03/02 01:12:42;;;;;;;11.98;3.67;;;;;;;;;;5070224;28;20075;-77
2023/03/02 01:15:08;;;;;;;9.57;3.15;;;;;;;;;;5040794;28;20112;-77
2023/03/02 01:17:34;;;;;;;6.38;3.47;;;;;;;;;;5069509;28;20543;-77
2023/03/02 01:20:01;;;;;;;7.18;3.38;;;;;;;;;;5064142;28;20463;-77
2023/03/02 01:22:27;;;;;;;9.32;4.40;;;;;;;;;;5062062;28;20036;-77
2023/03/02 01:24:53;;;;;;;10.68;4.28;;;;;;;;;;5089124;28;20087;-77
2023/03/02 01:27:20;;;;;;;10.63;4.18;;;;;;;;;;5076349;28;20028;-77
2023/03/02 01:29:46;;;;;;;9.38;3.50;;;;;;;;;;5050542;28;20484;-77
2023/03/02 01:32:12;;;;;;;12.90;3.90;;;;;;;;;;5063288;28;20107;-77
2023/03/02 01:34:38;;;;;;;9.90;3.60;;;;;;;;;;5078667;28;20024;-77
2023/03/02 01:37:05;;;;;;;7.97;3.30;;;;;;;;;;5066931;28;20056;-77
2023/03/02 01:39:31;;;;;;;14.50;4.18;;;;;;;;;;5039530;28;20056;-77
2023/03/02 01:41:57;;;;;;;10.45;4.20;;;;;;;;;;5046478;28;20021;-77
2023/03/02 01:44:39;;;;;;;6.43;3.90;;;;;;;;;;5064181;28;20035;-77
2023/03/02 01:47:25;;;;;;;9.10;4.32;;;;;;;;;;5037492;28;20115;-77
2023/03/02 01:50:16;;;;;;;6.30;3.60;;;;;;;;;;5043200;28;20446;-77
2023/03/02 01:52:43;;;;;;;11.60;4.10;;;;;;;;;;5030783;28;20445;-77
2023/03/02 01:55:10;;;;;;;9.50;3.95;;;;;;;;;;5052026;28;20025;-77
2023/03/02 01:57:42;;;;;;;10.25;4.15;;;;;;;;;;5047983;28;20025;-77
2023/03/02 02:00:11;;;;;;;8.95;3.95;;;;;;;;;;5042292;28;20472;-77
2023/03/02 02:02:41;;;;;;;11.57;4.43;;;;;;;;;;5038969;28;20453;-77
2023/03/02 02:05:09;;;;;;;10.88;4.18;;;;;;;;;;5067806;28;20511;-77
2023/03/02 02:07:35;;;;;;;10.48;3.95;;;;;;;;;;5038887;28;20538;-77
2023/03/02 02:10:02;;;;;;;10.63;4.38;;;;;;;;;;5029292;28;20032;-77
2023/03/02 02:12:29;;;;;;;10.63;3.78;;;;;;;;;;5046065;28;20035;-77
2023/03/02 02:14:59;;;;;;;16.67;4.90;;;;;;;;;;5038582;28;20067;-77
2023/03/02 02:17:25;;;;;;;11.27;4.97;;;;;;;;;;5068480;28;20056;-77
2023/03/02 02:20:04;;;;;;;14.90;5.80;;;;;;;;;;5058378;28;20020;-77
2023/03/02 02:22:52;;;;;;;24.27;7.65;;;;;;;;;;5041961;28;20032;-77
2023/03/02 02:25:39;;;;;;;29.27;9.18;;;;;;;;;;5050320;28;20106;-77
2023/03/02 02:28:08;;;;;;;22.85;8.98;;;;;;;;;;4959830;28;20564;-77
2023/03/02 02:30:36;;;;;;;16.30;5.40;;;;;;;;;;4963306;28;20378;-77
2023/03/02 02:33:03;;;;;;;15.35;4.63;;;;;;;;;;4994014;28;20042;-77
2023/03/02 02:35:30;;;;;;;13.13;4.35;;;;;;;;;;5006041;28;20033;-77
2023/03/02 02:38:00;;;;;;;9.77;4.80;;;;;;;;;;5009583;28;20038;-77
2023/03/02 02:40:39;;;;;;;12.15;4.88;;;;;;;;;;5025956;28;20077;-77
2023/03/02 02:43:06;;;;;;;12.10;4.90;;;;;;;;;;5018017;28;20133;-77
2023/03/02 02:45:34;;;;;;;21.27;5.03;;;;;;;;;;5018028;28;20096;-77
2023/03/02 02:48:00;;;;;;;12.90;4.63;;;;;;;;;;5008743;28;20042;-77
2023/03/02 02:50:32;;;;;;;16.60;6.20;;;;;;;;;;5012652;28;20433;-77
2023/03/02 02:53:05;;;;;;;12.15;5.18;;;;;;;;;;5006162;28;20038;-77
2023/03/02 02:55:33;;;;;;;14.05;5.63;;;;;;;;;;5009991;28;20041;-77
2023/03/02 02:58:00;;;;;;;13.27;6.00;;;;;;;;;;5008593;28;20034;-77
2023/03/02 03:00:28;;;;;;;16.77;5.75;;;;;;;;;;5012712;28;20053;-77
2023/03/02 03:03:01;;;;;;;22.85;6.70;;;;;;;;;;5022979;28;20030;-77
2023/03/02 03:05:27;;;;;;;13.50;5.82;;;;;;;;;;5032539;28;20131;-77
2023/03/02 03:08:05;;;;;;;12.73;5.82;;;;;;;;;;5068230;28;20047;-77
2023/03/02 03:10:33;;;;;;;16.98;6.60;;;;;;;;;;5056741;28;20020;-77
2023/03/02 03:13:01;;;;;;;20.30;7.07;;;;;;;;;;5066663;28;20036;-77
2023/03/02 03:15:28;;;;;;;15.40;6.15;;;;;;;;;;5064082;28;20028;-77
2023/03/02 03:17:55;;;;;;;14.80;6.38;;;;;;;;;;5058946;28;20017;-77
2023/03/02 03:20:22;;;;;;;15.77;6.03;;;;;;;;;;5056390;28;20029;-78
2023/03/02 03:22:48;;;;;;;12.63;5.47;;;;;;;;;;5068088;28;20539;-77
2023/03/02 03:25:14;;;;;;;13.35;6.78;;;;;;;;;;5061911;28;20028;-77
2023/03/02 03:27:43;;;;;;;14.38;5.82;;;;;;;;;;5078775;28;20028;-77
2023/03/02 03:30:11;;;;;;;8.43;5.35;;;;;;;;;;5069626;28;20028;-77
2023/03/02 03:32:37;;;;;;;17.55;5.40;;;;;;;;;;5074368;28;20027;-77
2023/03/02 03:35:07;;;;;;;13.40;5.32;;;;;;;;;;5049710;28;20028;-77
2023/03/02 03:37:34;;;;;;;10.05;5.95;;;;;;;;;;5074765;28;20136;-77
2023/03/02 03:40:01;;;;;;;11.60;5.93;;;;;;;;;;5059823;28;20022;-77
2023/03/02 03:42:29;;;;;;;11.43;5.53;;;;;;;;;;5052832;28;20024;-77
2023/03/02 03:44:57;;;;;;;9.93;5.40;;;;;;;;;;5042735;28;20020;-77
2023/03/02 03:47:23;;;;;;;10.50;4.78;;;;;;;;;;5046865;28;20036;-77
2023/03/02 03:49:50;;;;;;;9.90;4.55;;;;;;;;;;5050042;28;20488;-77
2023/03/02 03:52:17;;;;;;;10.38;5.15;;;;;;;;;;5039680;28;20069;-77
2023/03/02 03:54:43;;;;;;;8.15;4.75;;;;;;;;;;5039530;28;20074;-77
2023/03/02 03:57:10;;;;;;;10.43;4.80;;;;;;;;;;5049311;28;20028;-77
2023/03/02 03:59:37;;;;;;;9.38;4.93;;;;;;;;;;5047743;28;20473;-77
2023/03/02 04:02:04;;;;;;;12.50;5.13;;;;;;;;;;5041391;28;20025;-77
2023/03/02 04:04:37;;;;;;;;;;;;;;;;;;5052997;28;20171;-77
2023/03/02 04:07:10;;;;;;;10.77;5.18;;;;;;;;;;5028084;28;19913;-77
2023/03/02 04:09:38;;;;;;;10.15;4.80;;;;;;;;;;5045444;28;20029;-77
2023/03/02 04:12:07;;;;;;;8.80;4.63;;;;;;;;;;5035654;28;20024;-77
2023/03/02 04:14:33;;;;;;;13.77;5.90;;;;;;;;;;5053836;28;20063;-77
2023/03/02 04:17:00;;;;;;;13.02;5.35;;;;;;;;;;5041905;28;20017;-78
2023/03/02 04:19:27;;;;;;;12.20;5.63;;;;;;;;;;5064560;28;20029;-77
2023/03/02 04:21:57;;;;;;;13.50;5.88;;;;;;;;;;5049720;28;20025;-77
2023/03/02 04:24:24;;;;;;;11.73;4.82;;;;;;;;;;5039348;28;20041;-77
2023/03/02 04:26:54;;;;;;;10.07;4.90;;;;;;;;;;5051455;28;20053;-77
2023/03/02 04:29:22;;;;;;;11.48;5.43;;;;;;;;;;5044168;28;20041;-77
2023/03/02 04:31:49;;;;;;;10.45;5.32;;;;;;;;;;5043868;28;20029;-77
2023/03/02 04:34:17;;;;;;;12.73;5.60;;;;;;;;;;5051974;28;20035;-77
2023/03/02 04:36:45;;;;;;;8.90;4.65;;;;;;;;;;5036233;28;20017;-77
2023/03/02 04:39:14;;;;;;;18.45;9.13;;;;;;;;;;5054368;28;20044;-77
2023/03/02 04:41:43;;;;;;;23.35;9.80;;;;;;;;;;5055601;28;20032;-77
2023/03/02 04:44:10;;;;;;;13.80;7.35;;;;;;;;;;5055634;28;20041;-77
2023/03/02 04:46:36;;;;;;;13.35;6.32;;;;;;;;;;5073182;28;20024;-77
2023/03/02 04:49:03;;;;;;;14.00;6.82;;;;;;;;;;5055442;28;20047;-77
2023/03/02 04:51:34;;;;;;;10.32;6.50;;;;;;;;;;5055663;28;20032;-77
2023/03/02 04:54:02;;;;;;;13.77;5.75;;;;;;;;;;5068761;28;20025;-77
2023/03/02 04:56:28;;;;;;;12.88;6.60;;;;;;;;;;5070411;28;20017;-77
2023/03/02 04:58:55;;;;;;;15.23;6.72;;;;;;;;;;5073209;28;20481;-77
2023/03/02 05:01:21;;;;;;;15.25;6.40;;;;;;;;;;5073326;28;20016;-77
2023/03/02 05:03:48;;;;;;;20.33;7.50;;;;;;;;;;5073242;28;20029;-77
2023/03/02 05:06:14;;;;;;;16.73;7.05;;;;;;;;;;5073210;28;20033;-77
2023/03/02 05:08:41;;;;;;;13.90;6.95;;;;;;;;;;5072775;28;20119;-77
2023/03/02 05:11:07;;;;;;;18.08;7.72;;;;;;;;;;5073170;28;20059;-78
2023/03/02 05:13:33;;;;;;;16.83;6.63;;;;;;;;;;5054240;28;20381;-78
2023/03/02 05:16:00;;;;;;;14.63;6.50;;;;;;;;;;5072500;28;20028;-77
2023/03/02 05:18:26;;;;;;;15.15;7.32;;;;;;;;;;5055379;28;20024;-77
2023/03/02 05:20:53;;;;;;;17.38;8.13;;;;;;;;;;5055235;28;20592;-77
2023/03/02 05:23:23;;;;;;;15.43;7.70;;;;;;;;;;5073278;28;20107;-77
2023/03/02 05:25:55;;;;;;;23.38;11.63;;;;;;;;;;5055213;28;20032;-77
2023/03/02 05:28:22;;;;;;;19.63;12.38;;;;;;;;;;5072757;28;20031;-77
2023/03/02 05:30:48;;;;;;;29.30;14.25;;;;;;;;;;5052106;28;20453;-77
2023/03/02 05:33:15;;;;;;;25.13;13.27;;;;;;;;;;5070576;28;20039;-77
2023/03/02 05:35:42;;;;;;;21.25;13.02;;;;;;;;;;5070868;28;20044;-77
2023/03/02 05:38:09;;;;;;;22.08;11.45;;;;;;;;;;5077304;28;20028;-77
2023/03/02 05:40:35;;;;;;;19.05;11.73;;;;;;;;;;5081501;28;20099;-77
2023/03/02 05:43:01;;;;;;;22.25;11.88;;;;;;;;;;5081905;28;20062;-77
2023/03/02 05:45:30;;;;;;;24.00;12.48;;;;;;;;;;5080397;28;20031;-77
2023/03/02 05:47:56;;;;;;;22.40;11.63;;;;;;;;;;5081474;28;20024;-77
2023/03/02 05:50:22;;;;;;;20.10;11.32;;;;;;;;;;5082267;28;20035;-77
2023/03/02 05:52:49;;;;;;;20.25;12.60;;;;;;;;;;5079829;28;20021;-77
2023/03/02 05:55:15;;;;;;;19.95;10.93;;;;;;;;;;5076431;28;20038;-77
2023/03/02 05:57:41;;;;;;;18.75;12.48;;;;;;;;;;5078810;28;20020;-77
2023/03/02 06:00:08;;;;;;;23.65;13.40;;;;;;;;;;5080051;28;20021;-77
2023/03/02 06:02:41;;;;;;;21.73;13.13;;;;;;;;;;5053016;28;20040;-76
2023/03/02 06:05:09;;;;;;;24.60;13.82;;;;;;;;;;5054008;28;20074;-76
2023/03/02 06:07:35;;;;;;;17.05;11.93;;;;;;;;;;5075557;28;20024;-77
2023/03/02 06:10:01;;;;;;;20.73;13.38;;;;;;;;;;5081465;28;20028;-78
2023/03/02 06:12:27;;;;;;;22.33;12.85;;;;;;;;;;5076201;28;20044;-77
2023/03/02 06:14:53;;;;;;;20.58;12.07;;;;;;;;;;5071527;28;20032;-77
2023/03/02 06:17:20;;;;;;;22.52;11.43;;;;;;;;;;5075875;28;20086;-76
2023/03/02 06:19:46;;;;;;;22.73;13.32;;;;;;;;;;5079742;28;20016;-76
2023/03/02 06:22:12;;;;;;;20.65;10.20;;;;;;;;;;5073655;28;20027;-76
2023/03/02 06:24:38;;;;;;;19.98;11.07;;;;;;;;;;5063690;28;20047;-76
2023/03/02 06:27:04;;;;;;;21.40;11.68;;;;;;;;;;5080882;28;20027;-76
2023/03/02 06:29:30;;;;;;;18.15;11.18;;;;;;;;;;5073341;28;20024;-77
2023/03/02 06:31:56;;;;;;;16.77;10.45;;;;;;;;;;5071185;28;20435;-77
2023/03/02 06:34:22;;;;;;;21.48;10.65;;;;;;;;;;5068098;28;20024;-76
2023/03/02 06:36:48;;;;;;;20.33;10.13;;;;;;;;;;5069135;28;20484;-76
2023/03/02 06:39:15;;;;;;;21.45;12.32;;;;;;;;;;5064399;28;20043;-75
2023/03/02 06:41:42;;;;;;;17.90;10.57;;;;;;;;;;5069961;28;20051;-77
2023/03/02 06:44:08;;;;;;;14.48;8.90;;;;;;;;;;5063483;28;20040;-78
2023/03/02 06:46:34;;;;;;;18.30;8.82;;;;;;;;;;5063162;28;20488;-78
2023/03/02 06:49:00;;;;;;;16.30;8.95;;;;;;;;;;5071578;28;20123;-78
2023/03/02 06:51:26;;;;;;;20.02;9.13;;;;;;;;;;5071283;28;20107;-78
2023/03/02 06:53:52;;;;;;;14.82;8.82;;;;;;;;;;5070574;28;20402;-78
2023/03/02 06:56:19;;;;;;;21.30;9.10;;;;;;;;;;5058245;28;20393;-78
2023/03/02 06:58:45;;;;;;;16.52;9.77;;;;;;;;;;5063264;28;20028;-75
2023/03/02 07:01:11;;;;;;;20.38;10.32;;;;;;;;;;5063801;28;20012;-72
2023/03/02 07:03:37;;;;;;;16.20;8.98;;;;;;;;;;5064867;28;20025;-76
2023/03/02 07:06:03;;;;;;;19.30;10.82;;;;;;;;;;5066178;28;20031;-72
2023/03/02 07:08:30;;;;;;;15.68;10.00;;;;;;;;;;5062990;28;20032;-74
2023/03/02 07:10:56;;;;;;;17.90;10.93;;;;;;;;;;5047556;28;20067;-75
2023/03/02 07:13:22;;;;;;;21.05;12.68;;;;;;;;;;5050053;28;20385;-75
2023/03/02 07:15:48;;;;;;;20.10;10.07;;;;;;;;;;5069384;28;20055;-79
2023/03/02 07:18:14;;;;;;;19.23;10.43;;;;;;;;;;5070366;28;20082;-78
2023/03/02 07:20:40;;;;;;;22.42;13.10;;;;;;;;;;5069444;28;20013;-77
2023/03/02 07:23:07;;;;;;;25.15;12.77;;;;;;;;;;5072042;28;20078;-78
2023/03/02 07:25:33;;;;;;;17.92;10.98;;;;;;;;;;5072277;28;20491;-65
2023/03/02 07:27:59;;;;;;;23.70;13.43;;;;;;;;;;5075005;28;20123;-78
2023/03/02 07:30:25;;;;;;;17.95;12.18;;;;;;;;;;5074309;28;20403;-77
2023/03/02 07:32:51;;;;;;;22.55;12.05;;;;;;;;;;5068471;28;20074;-77
2023/03/02 07:35:17;;;;;;;22.25;11.57;;;;;;;;;;5074717;28;20368;-77
2023/03/02 07:37:44;;;;;;;21.38;11.27;;;;;;;;;;5062931;28;20465;-73
2023/03/02 07:40:10;;;;;;;16.30;10.57;;;;;;;;;;5077144;28;20129;-73
2023/03/02 07:42:37;;;;;;;13.80;9.75;;;;;;;;;;5095213;28;20471;-71
2023/03/02 07:45:04;;;;;;;21.25;9.77;;;;;;;;;;5060240;28;20049;-70
2023/03/02 07:47:30;;;;;;;15.57;9.32;;;;;;;;;;5090475;28;20020;-70
2023/03/02 07:49:57;;;;;;;20.10;10.73;;;;;;;;;;5064310;28;20055;-71
2023/03/02 07:52:23;;;;;;;15.13;10.02;;;;;;;;;;5082892;28;20032;-70
2023/03/02 07:54:49;;;;;;;19.40;9.23;;;;;;;;;;5088961;28;20032;-71
2023/03/02 07:57:16;;;;;;;15.55;9.70;;;;;;;;;;5095044;28;20028;-71
2023/03/02 07:59:43;;;;;;;21.92;9.98;;;;;;;;;;5076500;28;20036;-70
2023/03/02 08:02:12;;;;;;;17.50;8.02;;;;;;;;;;5083940;28;20024;-70
2023/03/02 08:04:38;;;;;;;17.00;8.93;;;;;;;;;;5090603;28;20411;-71
2023/03/02 08:07:04;;;;;;;16.67;8.50;;;;;;;;;;5065394;28;20030;-70
2023/03/02 08:09:30;;;;;;;21.58;8.30;;;;;;;;;;5094907;28;20395;-70
2023/03/02 08:11:56;;;;;;;13.88;9.55;;;;;;;;;;5081306;28;20032;-71
2023/03/02 08:14:22;;;;;;;17.23;9.43;;;;;;;;;;5056791;28;20027;-70
2023/03/02 08:16:51;;;;;;;20.70;11.10;;;;;;;;;;5084304;28;20403;-70
2023/03/02 08:19:17;;;;;;;17.73;10.32;;;;;;;;;;5088988;28;20103;-70
2023/03/02 08:21:43;;;;;;;19.98;10.70;;;;;;;;;;5074265;28;20028;-71
2023/03/02 08:24:10;;;;;;;20.77;11.18;;;;;;;;;;5074135;28;20074;-70
2023/03/02 08:26:36;;;;;;;21.98;10.73;;;;;;;;;;5074604;28;20052;-70
2023/03/02 08:29:02;;;;;;;27.13;12.13;;;;;;;;;;5085136;28;20062;-70
2023/03/02 08:31:28;;;;;;;22.75;11.40;;;;;;;;;;5094335;28;20028;-70
2023/03/02 08:33:55;;;;;;;24.15;12.10;;;;;;;;;;5074509;28;20028;-70
2023/03/02 08:36:21;;;;;;;27.35;13.23;;;;;;;;;;5080297;28;20028;-70
2023/03/02 08:38:48;;;;;;;23.73;12.63;;;;;;;;;;5070153;28;20127;-70
2023/03/02 08:41:18;;;;;;;23.25;11.80;;;;;;;;;;5045217;28;20037;-70
2023/03/02 08:43:45;;;;;;;22.58;12.15;;;;;;;;;;5073319;28;20028;-70
2023/03/02 08:46:11;;;;;;;20.52;11.15;;;;;;;;;;5069290;28;20032;-70
2023/03/02 08:48:38;;;;;;;32.83;14.80;;;;;;;;;;5062394;28;20029;-70
2023/03/02 08:51:08;;;;;;;39.85;19.23;;;;;;;;;;5061804;28;20035;-70
2023/03/02 08:53:36;;;;;;;55.40;25.92;;;;;;;;;;5065733;28;20040;-70
2023/03/02 08:56:02;;;;;;;54.22;23.05;;;;;;;;;;5070504;28;20093;-70
2023/03/02 08:58:28;;;;;;;60.15;25.15;;;;;;;;;;5060372;28;20031;-70
2023/03/02 09:00:54;;;;;;;71.20;29.50;;;;;;;;;;5073534;28;20021;-70
2023/03/02 09:03:20;;;;;;;49.08;23.75;;;;;;;;;;5063741;28;20491;-70
2023/03/02 09:05:47;;;;;;;68.53;32.88;;;;;;;;;;5037454;28;20114;-70
2023/03/02 09:08:13;;;;;;;60.42;32.88;;;;;;;;;;5040843;28;20056;-70
2023/03/02 09:10:39;;;;;;;64.18;30.83;;;;;;;;;;5065143;28;20112;-70
2023/03/02 09:13:06;;;;;;;61.70;28.05;;;;;;;;;;5065055;28;20028;-70
2023/03/02 09:15:32;;;;;;;64.80;27.88;;;;;;;;;;5058357;28;20023;-70
2023/03/02 09:17:58;;;;;;;38.58;20.40;;;;;;;;;;5051890;28;20027;-70
2023/03/02 09:20:24;;;;;;;29.30;14.82;;;;;;;;;;5053519;28;20037;-70
2023/03/02 09:22:50;;;;;;;23.77;12.32;;;;;;;;;;5053779;28;20039;-73
2023/03/02 09:25:18;;;;;;;37.55;13.48;;;;;;;;;;5062400;28;20029;-73
2023/03/02 09:27:44;;;;;;;17.25;8.60;;;;;;;;;;5043805;28;20037;-73
2023/03/02 09:30:11;;;;;;;15.90;8.35;;;;;;;;;;5065545;28;20503;-73
2023/03/02 09:32:37;;;;;;;10.98;7.30;;;;;;;;;;5057370;28;20032;-73
2023/03/02 09:35:03;;;;;;;14.05;7.50;;;;;;;;;;5053696;28;20021;-72
2023/03/02 09:37:29;;;;;;;19.10;7.13;;;;;;;;;;5072267;28;20494;-73
2023/03/02 09:39:56;;;;;;;13.25;6.30;;;;;;;;;;5073272;28;20029;-73
2023/03/02 09:42:27;;;;;;;20.10;7.65;;;;;;;;;;5073296;28;20103;-73
2023/03/02 09:45:02;;;;;;;20.92;8.07;;;;;;;;;;5072678;28;20036;-73
2023/03/02 09:47:31;;;;;;;15.18;7.15;;;;;;;;;;5073435;28;20047;-73
2023/03/02 09:50:04;;;;;;;16.05;7.05;;;;;;;;;;5054393;28;20539;-73
2023/03/02 09:52:30;;;;;;;23.45;8.30;;;;;;;;;;5072665;28;20456;-73
2023/03/02 09:55:00;;;;;;;14.68;8.93;;;;;;;;;;5072378;28;20077;-73
2023/03/02 09:57:34;;;;;;;20.80;9.13;;;;;;;;;;5054884;28;20028;-73
2023/03/02 10:00:03;;;;;;;18.95;9.48;;;;;;;;;;5072311;28;20081;-73
2023/03/02 10:02:44;;;;;;;24.60;10.05;;;;;;;;;;5072857;28;20032;-73
2023/03/02 10:05:15;;;;;;;24.40;10.93;;;;;;;;;;5072270;28;20020;-73
2023/03/02 10:07:41;;;;;;;17.67;10.65;;;;;;;;;;5072621;28;20066;-73
2023/03/02 10:10:25;;;;;;;18.05;11.48;;;;;;;;;;5072703;28;20031;-73
2023/03/02 10:12:58;;;;;;;19.50;10.98;;;;;;;;;;5071416;28;20392;-73
2023/03/02 10:15:35;;;;;;;19.75;11.45;;;;;;;;;;5066174;28;20103;-73
2023/03/02 10:18:20;;;;;;;18.33;11.40;;;;;;;;;;5070937;28;20107;-73
2023/03/02 10:20:59;;;;;;;20.67;12.07;;;;;;;;;;5054487;28;20081;-73
2023/03/02 10:23:44;;;;;;;24.08;12.52;;;;;;;;;;5072926;28;20039;-73
2023/03/02 10:26:16;;;;;;;21.98;12.68;;;;;;;;;;5072347;28;20056;-73
2023/03/02 10:28:45;;;;;;;28.00;13.47;;;;;;;;;;5072340;28;20120;-73
2023/03/02 10:31:20;;;;;;;25.67;14.15;;;;;;;;;;5071805;28;20021;-73
2023/03/02 10:33:47;;;;;;;27.77;15.15;;;;;;;;;;5052953;28;20020;-73
2023/03/02 10:36:20;;;;;;;26.52;15.23;;;;;;;;;;5071750;28;20008;-72
2023/03/02 10:38:46;;;;;;;26.10;16.08;;;;;;;;;;5071922;28;20048;-74
2023/03/02 10:41:15;;;;;;;25.55;14.30;;;;;;;;;;5071920;28;20107;-73
2023/03/02 10:43:59;;;;;;;33.30;14.77;;;;;;;;;;5071598;28;20104;-73
2023/03/02 10:46:25;;;;;;;25.85;13.32;;;;;;;;;;5056596;28;20028;-73
2023/03/02 10:49:00;;;;;;;23.42;12.88;;;;;;;;;;5074278;28;20527;-73
2023/03/02 10:51:28;;;;;;;27.13;13.10;;;;;;;;;;5076519;28;20365;-73
2023/03/02 10:54:10;;;;;;;26.15;12.60;;;;;;;;;;5075953;28;20036;-73
2023/03/02 10:56:37;;;;;;;22.65;13.73;;;;;;;;;;5075326;28;20032;-73
2023/03/02 10:59:26;;;;;;;30.63;14.93;;;;;;;;;;5075873;28;20098;-73
2023/03/02 11:02:11;;;;;;;34.15;16.40;;;;;;;;;;5043532;28;20083;-73
2023/03/02 11:04:37;;;;;;;25.83;14.48;;;;;;;;;;5075290;28;20446;-75
2023/03/02 11:07:07;;;;;;;26.15;14.77;;;;;;;;;;5067848;28;20085;-73
2023/03/02 11:09:34;;;;;;;28.40;14.63;;;;;;;;;;5057966;28;20025;-73
2023/03/02 11:12:00;;;;;;;27.48;14.40;;;;;;;;;;5074951;28;20032;-74
2023/03/02 11:14:26;;;;;;;30.65;14.90;;;;;;;;;;5075271;28;20032;-73
2023/03/02 11:16:52;;;;;;;24.73;13.63;;;;;;;;;;5075280;28;20480;-74
2023/03/02 11:19:29;;;;;;;33.25;15.90;;;;;;;;;;5036718;28;20110;-73
2023/03/02 11:21:58;;;;;;;31.08;15.77;;;;;;;;;;5071810;28;20043;-73
2023/03/02 11:24:27;;;;;;;27.30;15.20;;;;;;;;;;5055277;28;20094;-75
2023/03/02 11:26:55;;;;;;;31.98;13.88;;;;;;;;;;5055148;28;20025;-73
2023/03/02 11:29:28;;;;;;;25.77;14.25;;;;;;;;;;5073624;28;20535;-74
2023/03/02 11:32:09;;;;;;;26.63;14.05;;;;;;;;;;5054553;28;20151;-74
2023/03/02 11:34:42;;;;;;;28.15;14.43;;;;;;;;;;5055220;28;20028;-74
2023/03/02 11:37:12;;;;;;;29.85;14.75;;;;;;;;;;5072029;28;20040;-74
2023/03/02 11:39:49;;;;;;;27.05;13.98;;;;;;;;;;5064560;28;20044;-73
2023/03/02 11:42:19;;;;;;;28.58;15.32;;;;;;;;;;5063828;28;20029;-73
2023/03/02 11:44:46;;;;;;;49.72;18.38;;;;;;;;;;5069558;28;20027;-74
2023/03/02 11:47:13;;;;;;;29.33;15.27;;;;;;;;;;5044633;28;20544;-73
2023/03/02 11:49:42;;;;;;;23.55;14.80;;;;;;;;;;5060293;28;20031;-74
2023/03/02 11:52:17;;;;;;;25.02;14.40;;;;;;;;;;5067048;28;20575;-74
2023/03/02 11:54:45;;;;;;;32.33;15.50;;;;;;;;;;5071380;28;20031;-73
2023/03/02 11:57:18;;;;;;;24.30;15.18;;;;;;;;;;5055623;28;20020;-73
2023/03/02 11:59:44;;;;;;;33.55;15.07;;;;;;;;;;5050035;28;20028;-74
2023/03/02 12:02:13;;;;;;;27.40;14.85;;;;;;;;;;5068172;28;20024;-74
2023/03/02 12:04:39;;;;;;;28.02;15.57;;;;;;;;;;5067437;28;20036;-73
2023/03/02 12:07:22;;;;;;;29.90;15.38;;;;;;;;;;5053798;28;20027;-73
2023/03/02 12:10:09;;;;;;;32.20;16.73;;;;;;;;;;5056274;28;20067;-73
2023/03/02 12:12:40;;;;;;;31.58;15.13;;;;;;;;;;5072766;28;20495;-74
2023/03/02 12:15:25;;;;;;;28.55;14.95;;;;;;;;;;5047772;28;20112;-73
2023/03/02 12:17:51;;;;;;;35.35;16.83;;;;;;;;;;5067454;28;20020;-74
2023/03/02 12:20:20;;;;;;;30.48;14.15;;;;;;;;;;5069386;28;20023;-74
2023/03/02 12:22:46;;;;;;;26.50;14.60;;;;;;;;;;5040120;28;20147;-74
2023/03/02 12:25:18;;;;;;;29.42;14.55;;;;;;;;;;5066609;28;20025;-74
2023/03/02 12:27:46;;;;;;;28.30;14.00;;;;;;;;;;5058166;28;20036;-73
2023/03/02 12:30:15;;;;;;;29.98;14.88;;;;;;;;;;5061949;28;20052;-74
2023/03/02 12:32:47;;;;;;;27.85;13.70;;;;;;;;;;5062674;28;20083;-73
2023/03/02 12:35:15;;;;;;;27.33;15.05;;;;;;;;;;5062468;28;20032;-73
2023/03/02 12:37:44;;;;;;;28.80;14.20;;;;;;;;;;5054561;28;20047;-73
2023/03/02 12:40:10;;;;;;;27.33;14.95;;;;;;;;;;5080406;28;20126;-73
2023/03/02 12:42:48;;;;;;;25.45;14.18;;;;;;;;;;5079950;28;20523;-75
2023/03/02 12:45:17;;;;;;;29.13;14.15;;;;;;;;;;5078248;28;20028;-75
2023/03/02 12:47:44;;;;;;;30.30;14.63;;;;;;;;;;5085129;28;20060;-74
2023/03/02 12:50:18;;;;;;;26.10;14.02;;;;;;;;;;5076158;28;20016;-74
2023/03/02 12:52:44;;;;;;;26.52;14.25;;;;;;;;;;5082161;28;20028;-74
2023/03/02 12:55:18;;;;;;;28.90;14.70;;;;;;;;;;5075345;28;21424;-74
2023/03/02 12:57:48;;;;;;;23.38;13.20;;;;;;;;;;5058127;28;20028;-74
2023/03/02 13:00:19;;;;;;;29.13;14.75;;;;;;;;;;5082868;28;20020;-74
2023/03/02 13:02:46;;;;;;;23.60;12.93;;;;;;;;;;5081117;28;20512;-74
2023/03/02 13:05:16;;;;;;;32.50;14.27;;;;;;;;;;5085027;28;20054;-74
2023/03/02 13:08:03;;;;;;;24.77;12.93;;;;;;;;;;5077819;28;20024;-74
2023/03/02 13:10:34;;;;;;;29.27;13.30;;;;;;;;;;5079529;28;20515;-74
2023/03/02 13:13:01;;;;;;;29.10;14.95;;;;;;;;;;5057479;28;20043;-74
2023/03/02 13:15:27;;;;;;;32.65;14.68;;;;;;;;;;5082951;28;20025;-74
2023/03/02 13:17:58;;;;;;;30.85;15.23;;;;;;;;;;5079143;28;20048;-74
2023/03/02 13:20:26;;;;;;;30.88;14.35;;;;;;;;;;5079942;28;20020;-74
2023/03/02 13:22:52;;;;;;;30.33;14.63;;;;;;;;;;5083612;28;20483;-74
2023/03/02 13:25:23;;;;;;;29.65;16.58;;;;;;;;;;5078723;28;20032;-74
2023/03/02 13:27:53;;;;;;;31.63;16.90;;;;;;;;;;5065265;28;20105;-74
2023/03/02 13:30:25;;;;;;;35.92;16.73;;;;;;;;;;5065266;28;20036;-74
2023/03/02 13:32:53;;;;;;;35.60;19.08;;;;;;;;;;5083796;28;20395;-75
2023/03/02 13:35:24;;;;;;;37.60;18.73;;;;;;;;;;5066799;28;20024;-74
2023/03/02 13:37:58;;;;;;;36.28;18.25;;;;;;;;;;5078003;28;20508;-75
2023/03/02 13:40:30;;;;;;;41.58;19.05;;;;;;;;;;5070453;28;20051;-75
2023/03/02 13:42:56;;;;;;;33.97;17.33;;;;;;;;;;5070980;28;20494;-74
2023/03/02 13:45:26;;;;;;;38.50;20.23;;;;;;;;;;5071522;28;20027;-74
2023/03/02 13:47:53;;;;;;;37.80;20.10;;;;;;;;;;5070737;28;20032;-74
2023/03/02 13:50:21;;;;;;;36.60;19.30;;;;;;;;;;5070842;28;20501;-74
2023/03/02 13:52:48;;;;;;;38.30;19.10;;;;;;;;;;5070897;28;20085;-74
2023/03/02 13:55:15;;;;;;;30.65;18.17;;;;;;;;;;5070553;28;20050;-74
2023/03/02 13:57:44;;;;;;;35.53;19.10;;;;;;;;;;5052709;28;20078;-74
2023/03/02 14:00:15;;;;;;;36.90;19.02;;;;;;;;;;5067210;28;20013;-74
2023/03/02 14:02:42;;;;;;;36.55;18.67;;;;;;;;;;5070484;28;20073;-74
2023/03/02 14:05:22;;;;;;;34.75;18.80;;;;;;;;;;5070758;28;20050;-74
2023/03/02 14:07:48;;;;;;;32.78;17.80;;;;;;;;;;5069064;28;20123;-74
2023/03/02 14:10:16;;;;;;;40.13;21.75;;;;;;;;;;5052625;28;20024;-74
2023/03/02 14:12:45;;;;;;;40.78;21.25;;;;;;;;;;5069343;28;20074;-74
2023/03/02 14:15:13;;;;;;;34.80;20.70;;;;;;;;;;5070875;28;20085;-74
2023/03/02 14:17:40;;;;;;;37.00;21.23;;;;;;;;;;5052915;28;20032;-74
2023/03/02 14:20:06;;;;;;;39.95;22.67;;;;;;;;;;5071026;28;20032;-74
2023/03/02 14:22:34;;;;;;;42.53;23.42;;;;;;;;;;5070540;28;20032;-74
2023/03/02 14:25:00;;;;;;;41.35;21.88;;;;;;;;;;5070421;28;20499;-74
2023/03/02 14:27:28;;;;;;;42.67;21.83;;;;;;;;;;5052212;28;20028;-74
2023/03/02 14:29:54;;;;;;;38.05;21.88;;;;;;;;;;5052761;28;20027;-74
2023/03/02 14:32:20;;;;;;;40.13;22.52;;;;;;;;;;5069811;28;20020;-74